Terminal Aerodrome Forecast
Issued by NWS

Home | Current Version | Previous Version | Text Only | Print | Product List | Glossary On
Versions: 1 2 3 4 5 6 7 8 9 10 11 12 13 14
000
FTUS46 KSGX 092300
TAFSNA
TAF
KSNA 092332Z 1000/1024 21010KT P6SM SKC
     FM100300 VRB04KT P6SM SCT015
     FM100600 VRB04KT P6SM OVC015
     FM101700 VRB04KT P6SM SCT018
     FM101900 22009KT P6SM SKC=

USA.gov is the U.S. government's official web portal to all federal, state and local government web resources and services.